Houston Lake, Missouri
Current Conditions -  °F | °C
As of 3:54 AM on Tuesday 21 Oct 2014 (Local Time) from KMKC Reporting Station
Clear Clear  
Wind Chill: 48°   Ceiling: Unl
Heat Index: 48°   Visibility: 7mi
Dew Point: 45°   Wind: 3mph
Humidity: 89%   Direction: 330°NNW
Pressure: 30.08"   Gusts: NA
Location:  39.2125°N, 94.6296°W
Report Text: KMKC 210854Z 33003KT 7SM CLR 09/07 A3008 RMK AO2 SLP184 T00890072 53002
Loading
Personal Weather Stations






























Interactive Weather Map
Tropical Storm Tracking
New forecast layout! Learn more

10-Day Weather Forecast

Advertisements
Track Severe Weather on mobile